1885 Hurricane NOT_NAMED (1885260N22265)


IBTrACS version v04r00. Visit IBTrACS website for data access.
Please direct all questions to the IBTrACS Q and A forum

Storm track - Intensity - Wind Radii - Intensity Data - Source Data - All data

Summary Information

Storm ID 1885260N22265
Start Sep 17 00Z
Landfall Sep 28 00Z, Sep 28 06Z
Max Intensity 70 kt (Oct 2 12Z)
End Oct 2 18Z
ATCF IDs AL041885,AL061885
Track status Best track data.

Storm track plot

Map of storm track

Intensity plots

Map of storm track

Radial wind information

No radial wind information for this storm


Position and Intensity Table

BASIN ISO_TIME_________ NATURE LAT LON WMO WIND USA WIND MLC WIND
degrees north degrees east kts kts kts
NA 1885-09-17 00:00:00 TS 22.13 -95.00 40 40 30
NA 03:00:00 TS 22.32 -95.21 40 30
NA 06:00:00 TS 22.53 -95.43 40 40 30
NA 09:00:00 TS 22.80 -95.66 40 32
NA 12:00:00 TS 23.10 -95.83 40 40 35
NA 15:00:00 TS 23.42 -95.93 40 37
NA 18:00:00 TS 23.77 -95.97 40 40 40
NA 21:00:00 TS 24.12 -95.99 40 42
NA 1885-09-18 00:00:00 TS 24.47 -96.00 40 40 45
NA 03:00:00 TS 24.81 -96.01 40 45
NA 06:00:00 TS 25.13 -96.00 40 40 45
NA 09:00:00 TS 25.47 -96.00 45 45
NA 12:00:00 TS 25.77 -95.97 50 50 45
NA 15:00:00 TS 25.99 -95.88 50 45
NA 18:00:00 TS 26.17 -95.80 50 50 45
NA 21:00:00 TS 26.36 -95.78 50 45
NA 1885-09-19 00:00:00 TS 26.53 -95.77 50 50 45
NA 03:00:00 TS 26.69 -95.72 50 45
NA 06:00:00 TS 26.83 -95.67 50 50 45
NA 09:00:00 TS 26.99 -95.61 50 42
NA 12:00:00 TS 27.13 -95.53 50 50 40
NA 15:00:00 TS 27.27 -95.44 50 37
NA 18:00:00 TS 27.40 -95.33 50 50 35
NA 21:00:00 TS 27.53 -95.22 50 32
NA 1885-09-20 00:00:00 TS 27.63 -95.10 50 50 30
NA 03:00:00 TS 27.70 -94.97 50 30
NA 06:00:00 TS 27.77 -94.83 50 50 30
NA 09:00:00 TS 27.84 -94.71 50 30
NA 12:00:00 TS 27.92 -94.58 50 50 30
NA 15:00:00 TS 28.02 -94.44 50 30
NA 18:00:00 MX 28.10 -94.40 50 50 30
NA 21:00:00 ET 28.06 -94.96 30
NA 1885-09-21 00:00:00 ET 28.10 -94.80 50 30
NA 03:00:00 ET 28.15 -94.64 50 30
NA 06:00:00 ET 28.20 -94.50 50 30
NA 09:00:00 ET 28.27 -94.40 30
NA 12:00:00 ET 28.30 -94.30 50 30
NA 15:00:00 ET 28.22 -94.15 30
NA 18:00:00 ET 28.10 -94.00 40 30
NA 21:00:00 ET 28.04 -93.89 30
NA 1885-09-22 00:00:00 TS 28.00 -93.80 50 30
NA 03:00:00 TS 27.95 -93.70 30
NA 06:00:00 TS 27.90 -93.60 60 30
NA 09:00:00 TS 27.87 -93.52 30
NA 12:00:00 TS 27.80 -93.40 70 30
NA 15:00:00 TS 27.62 -93.21 32
NA 18:00:00 TS 27.40 -93.00 70 35
NA 21:00:00 TS 27.19 -92.84 37
NA 1885-09-23 00:00:00 TS 27.00 -92.70 80 40
NA 03:00:00 TS 26.85 -92.55 42
NA 06:00:00 TS 26.70 -92.40 80 45
NA 09:00:00 TS 26.48 -92.26 47
NA 12:00:00 TS 26.30 -92.10 70 50
NA 15:00:00 TS 26.23 -91.90 50
NA 18:00:00 TS 26.20 -91.70 60 50
NA 21:00:00 TS 26.15 -91.55 50
NA 1885-09-24 00:00:00 TS 26.20 -90.20 40 40 50
NA 03:00:00 TS 26.30 -89.52 40 50
NA 06:00:00 TS 26.42 -89.14 40 40 50
NA 09:00:00 TS 26.55 -88.91 40 50
NA 12:00:00 TS 26.67 -88.90 40 40 50
NA 15:00:00 TS 26.84 -88.88 40 50
NA 18:00:00 TS 27.03 -88.87 40 40 50
NA 21:00:00 TS 27.20 -88.88 45 50
NA 1885-09-25 00:00:00 TS 27.37 -88.90 50 50 50
NA 03:00:00 TS 27.54 -88.88 50 50
NA 06:00:00 TS 27.73 -88.87 50 50 50
NA 09:00:00 TS 27.94 -88.88 50 50
NA 12:00:00 TS 28.13 -88.90 50 50 50
NA 15:00:00 TS 28.29 -88.92 50 50
NA 18:00:00 TS 28.43 -88.93 50 50 50
NA 21:00:00 TS 28.56 -88.94 55 50
NA 1885-09-26 00:00:00 TS 28.70 -88.93 60 60 50
NA 03:00:00 TS 28.90 -88.94 60 50
NA 04:00:00 TS 28.97 -88.93 60 60 50
NA 06:00:00 TS 29.07 -88.90 60 60 50
NA 09:00:00 TS 29.20 -88.90 60 47
NA 12:00:00 TS 29.33 -88.90 60 60 45
NA 15:00:00 TS 29.46 -88.86 60 45
NA 18:00:00 TS 29.57 -88.80 60 60 45
NA 21:00:00 TS 29.65 -88.75 60 45
NA 1885-09-27 00:00:00 TS 29.73 -88.70 60 60 45
NA 03:00:00 TS 29.82 -88.65 55 45
NA 06:00:00 TS 29.90 -88.60 50 50 45
NA 09:00:00 TS 29.96 -88.52 50 45
NA 12:00:00 TS 30.03 -88.43 50 50 45
NA 15:00:00 TS 30.13 -88.37 45 45
NA 18:00:00 TS 30.23 -88.30 40 40 45
NA 21:00:00 TS 30.31 -88.22 40 42
NA 1885-09-28 00:00:00 TS 30.37 -88.13 40 40 40
NA 03:00:00 TS 30.44 -88.04 40 37
NA 06:00:00 TS 30.50 -87.93 40 40 35
NA 09:00:00 TS 30.55 -87.82 40 32
NA 12:00:00 TS 30.60 -87.67 40 40 30
NA 15:00:00 TS 30.69 -87.47 40 30
NA 18:00:00 TS 30.77 -87.23 40 40 30
NA 21:00:00 TS 30.80 -86.96 35 30
NA 1885-09-29 00:00:00 TS 30.80 -86.67 30 30 30
NA 03:00:00 TS 30.81 -86.37 30 30
NA 06:00:00 MX 30.80 -86.07 30 30 30
NA 09:00:00 MX 30.77 -85.75 30 30
NA 12:00:00 MX 30.73 -85.43 30 30 30
NA 15:00:00 MX 30.68 -85.16 30 27
NA 18:00:00 MX 30.63 -84.87 30 30 25
NA 21:00:00 MX 30.60 -84.52 30 25
NA 1885-09-30 00:00:00 MX 30.57 -84.17 30 30 25
NA 03:00:00 MX 30.51 -83.83 30 22
NA 06:00:00 MX 30.42 -83.49 30 30 20
NA 09:00:00 MX 30.35 -83.21 30 20
NA 12:00:00 MX 30.29 -82.88 30 30 20
NA 15:00:00 TS 30.19 -82.34 30
NA 18:00:00 TS 30.20 -81.80 30 30
NA 21:00:00 TS 30.28 -81.31 35
NA 1885-10-01 00:00:00 TS 30.40 -80.80 40 40
NA 03:00:00 TS 30.53 -80.18 40
NA 06:00:00 TS 30.70 -79.60 40 40
NA 09:00:00 TS 30.91 -79.18 45
NA 12:00:00 TS 31.20 -78.80 50 50
NA 15:00:00 TS 31.57 -78.30 55
NA 18:00:00 TS 32.00 -77.80 60 60
NA 21:00:00 TS 32.44 -77.38 60
NA 1885-10-02 00:00:00 TS 32.90 -77.00 60 60
NA 03:00:00 TS 33.36 -76.64 60
NA 06:00:00 TS 33.80 -76.30 60 60
NA 09:00:00 TS 34.14 -76.01 65
NA 12:00:00 TS 34.50 -75.60 70 70
NA 15:00:00 TS 34.97 -74.93 70
NA 18:00:00 TS 35.50 -74.10 70 70

Source Information

Agency Information
USA hurdat2-1851-2019-042820.txt:Line=5030:UNNAMED::hurdat2-1851-2019-042820.txt:Line=5077:UNNAMED
TOKYO
CMA
HKO
NEWDELHI
REUNION
BOM
NADI
WELLINGTON
DS824
TD9636
TD9635
NEUMANN
MLC

All available IBTrACS Data

SEASON BASIN SUBBASIN ISO_TIME_________ NATURE LAT LON WMO WIND WMO AGENCY DIST2LAND LANDFALL IFLAG USA AGENCY USA ATCF_ID USA LAT USA LON USA RECORD USA STATUS USA WIND USA SSHS MLC LAT MLC LON MLC CLASS MLC WIND STORM SPEED STORM DIR
Year degrees north degrees east kts km km degrees north degrees east kts 1 degrees north degrees east kts kts degrees
1885 NA GM 1885-09-17 00:00:00 TS 22.13 -95.00 40 atcf 243 230 O____________O hurdat_atl AL041885 21.20 -95.50 TS 40 0 24.00 -94.00 TD 30 5 313
1885 NA GM 03:00:00 TS 22.32 -95.21 230 220 P____________P AL041885 21.43 -95.74 TS 40 0 24.09 -94.16 TD 30 6 315
1885 NA GM 06:00:00 TS 22.53 -95.43 40 atcf 220 213 O____________O hurdat_atl AL041885 21.70 -96.00 TS 40 0 24.20 -94.30 TD 30 6 319
1885 NA GM 09:00:00 TS 22.80 -95.66 212 204 P____________P AL041885 22.03 -96.28 TS 40 0 24.33 -94.41 TD 32 7 327
1885 NA GM 12:00:00 TS 23.10 -95.83 40 atcf 204 193 O____________O hurdat_atl AL041885 22.40 -96.50 TS 40 0 24.50 -94.50 TS 35 7 338
1885 NA GM 15:00:00 TS 23.42 -95.93 193 183 P____________P AL041885 22.78 -96.59 TS 40 0 24.70 -94.61 TS 37 7 349
1885 NA GM 18:00:00 TS 23.77 -95.97 40 atcf 183 177 O____________O hurdat_atl AL041885 23.20 -96.60 TS 40 0 24.90 -94.70 TS 40 7 356
1885 NA GM 21:00:00 TS 24.12 -95.99 177 165 P____________P AL041885 23.65 -96.61 TS 40 0 25.05 -94.75 TS 42 7 357
1885 NA GM 1885-09-18 00:00:00 TS 24.47 -96.00 40 atcf 161 146 O____________O hurdat_atl AL041885 24.10 -96.60 TS 40 0 25.20 -94.80 TS 45 7 358
1885 NA GM 03:00:00 TS 24.81 -96.01 146 132 P____________P AL041885 24.51 -96.56 TS 40 0 25.40 -94.90 TS 45 7 1
1885 NA GM 06:00:00 TS 25.13 -96.00 40 atcf 132 120 O____________O hurdat_atl AL041885 24.90 -96.50 TS 40 0 25.60 -95.00 TS 45 7 0
1885 NA GM 09:00:00 TS 25.47 -96.00 120 112 P____________P AL041885 25.33 -96.46 TS 45 0 25.75 -95.06 TS 45 6 3
1885 NA GM 12:00:00 TS 25.77 -95.97 50 atcf 112 112 O____________O hurdat_atl AL041885 25.70 -96.40 TS 50 0 25.90 -95.10 TS 45 5 12
1885 NA GM 15:00:00 TS 25.99 -95.88 119 119 P____________P AL041885 25.93 -96.25 TS 50 0 26.10 -95.15 TS 45 4 20
1885 NA GM 18:00:00 TS 26.17 -95.80 50 atcf 131 131 O____________O hurdat_atl AL041885 26.10 -96.10 TS 50 0 26.30 -95.20 TS 45 4 15
1885 NA GM 21:00:00 TS 26.36 -95.78 137 137 P____________P AL041885 26.31 -96.04 TS 50 0 26.46 -95.25 TS 45 4 6
1885 NA GM 1885-09-19 00:00:00 TS 26.53 -95.77 50 atcf 141 141 O____________O hurdat_atl AL041885 26.50 -96.00 TS 50 0 26.60 -95.30 TS 45 3 7
1885 NA GM 03:00:00 TS 26.69 -95.72 159 159 P____________P AL041885 26.66 -95.91 TS 50 0 26.75 -95.36 TS 45 3 16
1885 NA GM 06:00:00 TS 26.83 -95.67 50 atcf 165 165 O____________O hurdat_atl AL041885 26.80 -95.80 TS 50 0 26.90 -95.40 TS 45 3 20
1885 NA GM 09:00:00 TS 26.99 -95.61 175 165 P____________P AL041885 26.95 -95.71 TS 50 0 27.06 -95.41 TS 42 3 21
1885 NA GM 12:00:00 TS 27.13 -95.53 50 atcf 169 150 O____________O hurdat_atl AL041885 27.10 -95.60 TS 50 0 27.20 -95.40 TS 40 3 27
1885 NA GM 15:00:00 TS 27.27 -95.44 155 145 P____________P AL041885 27.25 -95.46 TS 50 0 27.31 -95.41 TS 37 3 33
1885 NA GM 18:00:00 TS 27.40 -95.33 50 atcf 150 140 O____________O hurdat_atl AL041885 27.40 -95.30 TS 50 0 27.40 -95.40 TS 35 3 38
1885 NA GM 21:00:00 TS 27.53 -95.22 145 136 P____________P AL041885 27.56 -95.16 TS 50 0 27.45 -95.35 TS 32 3 41
1885 NA GM 1885-09-20 00:00:00 TS 27.63 -95.10 50 atcf 142 133 O____________O hurdat_atl AL041885 27.70 -95.00 TS 50 0 27.50 -95.30 TD 30 3 51
1885 NA GM 03:00:00 TS 27.70 -94.97 139 132 P____________P AL041885 27.76 -94.81 TS 50 0 27.60 -95.29 TD 30 3 61
1885 NA GM 06:00:00 TS 27.77 -94.83 50 atcf 136 136 O____________O hurdat_atl AL041885 27.80 -94.60 TS 50 0 27.70 -95.30 TD 30 3 61
1885 NA GM 09:00:00 TS 27.84 -94.71 140 130 P____________P AL041885 27.88 -94.40 TS 50 0 27.75 -95.31 TD 30 3 56
1885 NA GM 12:00:00 TS 27.92 -94.58 50 atcf 136 130 O____________O hurdat_atl AL041885 28.00 -94.10 TS 50 0 27.80 -95.30 TD 30 3 53
1885 NA GM 15:00:00 TS 28.02 -94.44 136 127 P____________P AL041885 28.15 -93.60 TS 50 0 27.90 -95.22 TD 30 2 42
1885 NA GM 18:00:00 MX 28.10 -94.40 50 atcf 127 101 O____________O hurdat_atl AL041885 28.30 -93.00 TS 50 0 28.00 -95.10 EX 30 5 275
1885 NA GM 21:00:00 ET 28.06 -94.96 97 97 _____________P AL041885 TS -1 28.06 -94.96 EX 30 4 270
1885 NA GM 1885-09-21 00:00:00 ET 28.10 -94.80 50 atcf 106 106 _____________O AL041885 TS -1 28.10 -94.80 EX 30 3 71
1885 NA GM 03:00:00 ET 28.15 -94.64 50 atcf 106 106 _____________P AL041885 TS -1 28.15 -94.64 EX 30 3 69
1885 NA GM 06:00:00 ET 28.20 -94.50 50 atcf 112 110 _____________O AL041885 TS -1 28.20 -94.50 EX 30 2 60
1885 NA GM 09:00:00 ET 28.27 -94.40 110 110 _____________P AL041885 TS -1 28.27 -94.40 EX 30 2 60
1885 NA GM 12:00:00 ET 28.30 -94.30 50 atcf 117 117 _____________O AL041885 TS -1 28.30 -94.30 EX 30 2 105
1885 NA GM 15:00:00 ET 28.22 -94.15 139 139 _____________P AL041885 TS -1 28.22 -94.15 EX 30 3 127
1885 NA GM 18:00:00 ET 28.10 -94.00 40 atcf 154 154 _____________O AL041885 TS -1 28.10 -94.00 EX 30 3 127
1885 NA GM 21:00:00 ET 28.04 -93.89 169 169 _____________P AL041885 TS -1 28.04 -93.89 EX 30 2 120
1885 NA GM 1885-09-22 00:00:00 TS 28.00 -93.80 50 atcf 176 176 _____________O AL041885 TS -1 28.00 -93.80 TD 30 2 119
1885 NA GM 03:00:00 TS 27.95 -93.70 184 191 _____________P AL041885 TS -1 27.95 -93.70 TD 30 2 120
1885 NA GM 06:00:00 TS 27.90 -93.60 60 atcf 198 198 _____________O AL041885 TS -1 27.90 -93.60 TD 30 2 115
1885 NA GM 09:00:00 TS 27.87 -93.52 203 203 _____________P AL041885 TS -1 27.87 -93.52 TD 30 2 120
1885 NA GM 12:00:00 TS 27.80 -93.40 70 atcf 215 212 _____________O AL041885 TS -1 27.80 -93.40 TD 30 4 133
1885 NA GM 15:00:00 TS 27.62 -93.21 229 226 _____________P AL041885 TS -1 27.62 -93.21 TD 32 5 139
1885 NA GM 18:00:00 TS 27.40 -93.00 70 atcf 244 244 _____________O AL041885 TS -1 27.40 -93.00 TS 35 5 143
1885 NA GM 21:00:00 TS 27.19 -92.84 261 261 _____________P AL041885 TS -1 27.19 -92.84 TS 37 5 146
1885 NA GM 1885-09-23 00:00:00 TS 27.00 -92.70 80 atcf 281 281 _____________O AL041885 TS -1 27.00 -92.70 TS 40 4 143
1885 NA GM 03:00:00 TS 26.85 -92.55 302 295 _____________P AL041885 TS -1 26.85 -92.55 TS 42 4 138
1885 NA GM 06:00:00 TS 26.70 -92.40 80 atcf 305 305 _____________O AL041885 TS -1 26.70 -92.40 TS 45 5 144
1885 NA GM 09:00:00 TS 26.48 -92.26 321 317 _____________P AL041885 TS -1 26.48 -92.26 TS 47 5 146
1885 NA GM 12:00:00 TS 26.30 -92.10 70 atcf 334 330 _____________O AL041885 TS -1 26.30 -92.10 TS 50 4 129
1885 NA GM 15:00:00 TS 26.23 -91.90 338 333 _____________P AL041885 TS -1 26.23 -91.90 TS 50 4 106
1885 NA GM 18:00:00 TS 26.20 -91.70 60 atcf 333 331 _____________O AL041885 TS -1 26.20 -91.70 TS 50 3 104
1885 NA GM 21:00:00 TS 26.15 -91.55 342 323 _____________P AL041885 TS -1 26.15 -91.55 TS 50 13 90
1885 NA GM 1885-09-24 00:00:00 TS 26.20 -90.20 40 atcf 323 305 O____________O hurdat_atl AL061885 26.40 -87.80 TS 40 0 26.10 -91.40 TS 50 18 85
1885 NA GM 03:00:00 TS 26.30 -89.52 304 290 P____________P AL061885 26.55 -87.84 TS 40 0 26.04 -91.20 TS 50 10 77
1885 NA GM 06:00:00 TS 26.42 -89.14 40 atcf 290 279 O____________O hurdat_atl AL061885 26.70 -87.90 TS 40 0 26.00 -91.00 TS 50 6 65
1885 NA GM 09:00:00 TS 26.55 -88.91 268 257 P____________P AL061885 26.84 -87.95 TS 40 0 25.97 -90.84 TS 50 3 41
1885 NA GM 12:00:00 TS 26.67 -88.90 40 atcf 257 246 O____________O hurdat_atl AL061885 27.00 -88.00 TS 40 0 26.00 -90.70 TS 50 3 7
1885 NA GM 15:00:00 TS 26.84 -88.88 246 224 P____________P AL061885 27.19 -88.04 TS 40 0 26.13 -90.55 TS 50 4 6
1885 NA GM 18:00:00 TS 27.03 -88.87 40 atcf 224 201 O____________O hurdat_atl AL061885 27.40 -88.10 TS 40 0 26.30 -90.40 TS 50 4 357
1885 NA GM 21:00:00 TS 27.20 -88.88 201 179 P____________P AL061885 27.60 -88.20 TS 45 0 26.40 -90.25 TS 50 3 353
1885 NA GM 1885-09-25 00:00:00 TS 27.37 -88.90 50 atcf 179 168 O____________O hurdat_atl AL061885 27.80 -88.30 TS 50 0 26.50 -90.10 TS 50 3 0
1885 NA GM 03:00:00 TS 27.54 -88.88 168 146 P____________P AL061885 27.99 -88.35 TS 50 0 26.65 -89.95 TS 50 4 6
1885 NA GM 06:00:00 TS 27.73 -88.87 50 atcf 146 124 O____________O hurdat_atl AL061885 28.20 -88.40 TS 50 0 26.80 -89.80 TS 50 4 2
1885 NA GM 09:00:00 TS 27.94 -88.88 124 102 P____________P AL061885 28.46 -88.49 TS 50 0 26.90 -89.65 TS 50 4 355
1885 NA GM 12:00:00 TS 28.13 -88.90 50 atcf 102 80 O____________O hurdat_atl AL061885 28.70 -88.60 TS 50 0 27.00 -89.50 TS 50 4 352
1885 NA GM 15:00:00 TS 28.29 -88.92 80 69 P____________P AL061885 28.87 -88.71 TS 50 0 27.15 -89.34 TS 50 3 355
1885 NA GM 18:00:00 TS 28.43 -88.93 50 atcf 69 48 O____________O hurdat_atl AL061885 29.00 -88.80 TS 50 0 27.30 -89.20 TS 50 3 354
1885 NA GM 21:00:00 TS 28.56 -88.94 48 38 P____________P AL061885 29.14 -88.85 TS 55 0 27.40 -89.10 TS 50 3 0
1885 NA GM 1885-09-26 00:00:00 TS 28.70 -88.93 60 atcf 38 22 O____________O hurdat_atl AL061885 29.30 -88.90 TS 60 0 27.50 -89.00 TS 50 3 0
1885 NA GM 03:00:00 TS 28.90 -88.94 22 14 P____________P AL061885 29.53 -88.98 TS 60 0 27.65 -88.85 TS 50 4 5
1885 NA GM 04:00:00 TS 28.97 -88.93 60 atcf 14 9 O____________P hurdat_atl AL061885 29.60 -89.00 L TS 60 0 27.70 -88.80 TS 50 3 16
1885 NA GM 06:00:00 TS 29.07 -88.90 60 atcf 9 9 O____________O hurdat_atl AL061885 29.70 -89.00 TS 60 0 27.80 -88.70 TS 50 3 10
1885 NA GM 09:00:00 TS 29.20 -88.90 14 14 P____________P AL061885 29.86 -89.05 TS 60 0 27.90 -88.58 TS 47 3 0
1885 NA GM 12:00:00 TS 29.33 -88.90 60 atcf 22 22 O____________O hurdat_atl AL061885 30.00 -89.10 TS 60 0 28.00 -88.50 TS 45 3 9
1885 NA GM 15:00:00 TS 29.46 -88.86 36 36 P____________P AL061885 30.12 -89.07 TS 60 0 28.14 -88.44 TS 45 3 21
1885 NA GM 18:00:00 TS 29.57 -88.80 60 atcf 51 49 O____________O hurdat_atl AL061885 30.20 -89.00 TS 60 0 28.30 -88.40 TS 45 2 26
1885 NA GM 21:00:00 TS 29.65 -88.75 58 58 P____________P AL061885 30.26 -88.95 TS 60 0 28.45 -88.35 TS 45 2 29
1885 NA GM 1885-09-27 00:00:00 TS 29.73 -88.70 60 atcf 58 55 O____________O hurdat_atl AL061885 30.30 -88.90 TS 60 0 28.60 -88.30 TS 45 2 25
1885 NA GM 03:00:00 TS 29.82 -88.65 55 45 P____________P AL061885 30.35 -88.86 TS 55 0 28.76 -88.25 TS 45 2 29
1885 NA GM 06:00:00 TS 29.90 -88.60 50 atcf 45 33 O____________O hurdat_atl AL061885 30.40 -88.80 TS 50 0 28.90 -88.20 TS 45 2 39
1885 NA GM 09:00:00 TS 29.96 -88.52 33 33 P____________P AL061885 30.45 -88.71 TS 50 0 28.99 -88.14 TS 45 2 47
1885 NA GM 12:00:00 TS 30.03 -88.43 50 atcf 34 24 O____________O hurdat_atl AL061885 30.50 -88.60 TS 50 0 29.10 -88.10 TS 45 2 37
1885 NA GM 15:00:00 TS 30.13 -88.37 24 14 P____________P AL061885 30.56 -88.51 TS 45 0 29.28 -88.09 TS 45 2 30
1885 NA GM 18:00:00 TS 30.23 -88.30 40 atcf 22 9 O____________O hurdat_atl AL061885 30.60 -88.40 TS 40 0 29.50 -88.10 TS 45 2 36
1885 NA GM 21:00:00 TS 30.31 -88.22 9 0 P____________P AL061885 30.61 -88.26 TS 40 0 29.70 -88.15 TS 42 2 47
1885 NA GM 1885-09-28 00:00:00 TS 30.37 -88.13 40 atcf 0 0 O____________O hurdat_atl AL061885 30.60 -88.10 TS 40 0 29.90 -88.20 TS 40 2 50
1885 NA GM 03:00:00 TS 30.44 -88.04 9 0 P____________P AL061885 30.60 -87.96 TS 40 0 30.11 -88.21 TS 37 2 52
1885 NA GM 06:00:00 TS 30.50 -87.93 40 atcf 0 0 O____________O hurdat_atl AL061885 30.60 -87.80 TS 40 0 30.30 -88.20 TS 35 2 60
1885 NA NA 09:00:00 TS 30.55 -87.82 0 0 P____________P AL061885 30.60 -87.61 TS 40 0 30.44 -88.24 TS 32 3 66
1885 NA NA 12:00:00 TS 30.60 -87.67 40 atcf 0 0 O____________O hurdat_atl AL061885 30.60 -87.40 TS 40 0 30.60 -88.20 TD 30 3 65
1885 NA NA 15:00:00 TS 30.69 -87.47 0 0 P____________P AL061885 30.60 -87.21 TS 40 0 30.86 -88.00 TD 30 4 66
1885 NA NA 18:00:00 TS 30.77 -87.23 40 atcf 0 0 O____________O hurdat_atl AL061885 30.60 -87.00 TS 40 0 31.10 -87.70 TD 30 5 76
1885 NA NA 21:00:00 TS 30.80 -86.96 0 0 P____________P AL061885 30.60 -86.76 TS 35 0 31.19 -87.37 TD 30 5 86
1885 NA NA 1885-09-29 00:00:00 TS 30.80 -86.67 30 atcf 0 0 O____________O hurdat_atl AL061885 30.60 -86.50 TD 30 -1 31.20 -87.00 TD 30 5 89
1885 NA NA 03:00:00 TS 30.81 -86.37 0 0 P____________P AL061885 30.61 -86.26 TD 30 -1 31.21 -86.60 TD 30 5 90
1885 NA NA 06:00:00 MX 30.80 -86.07 30 atcf 0 0 O____________O hurdat_atl AL061885 30.60 -86.00 TD 30 -1 31.20 -86.20 EX 30 5 94
1885 NA NA 09:00:00 MX 30.77 -85.75 0 0 P____________P AL061885 30.56 -85.71 TD 30 -1 31.21 -85.83 EX 30 5 97
1885 NA NA 12:00:00 MX 30.73 -85.43 30 atcf 0 0 O____________O hurdat_atl AL061885 30.50 -85.40 TD 30 -1 31.20 -85.50 EX 30 5 100
1885 NA NA 15:00:00 MX 30.68 -85.16 0 0 P____________P AL061885 30.45 -85.12 TD 30 -1 31.15 -85.23 EX 27 5 102
1885 NA NA 18:00:00 MX 30.63 -84.87 30 atcf 0 0 O____________O hurdat_atl AL061885 30.40 -84.80 TD 30 -1 31.10 -85.00 EX 25 6 99
1885 NA NA 21:00:00 MX 30.60 -84.52 0 0 P____________P AL061885 30.35 -84.41 TD 30 -1 31.10 -84.75 EX 25 6 96
1885 NA NA 1885-09-30 00:00:00 MX 30.57 -84.17 30 atcf 0 0 O____________O hurdat_atl AL061885 30.30 -84.00 TD 30 -1 31.10 -84.50 EX 25 6 99
1885 NA NA 03:00:00 MX 30.51 -83.83 0 0 P____________P AL061885 30.24 -83.63 TD 30 -1 31.05 -84.25 EX 22 6 104
1885 NA NA 06:00:00 MX 30.42 -83.49 30 atcf 0 0 O____________O hurdat_atl AL061885 30.20 -83.30 TD 30 -1 31.00 -84.00 EX 20 6 107
1885 NA NA 09:00:00 MX 30.35 -83.21 0 0 P____________P AL061885 30.19 -83.07 TD 30 -1 30.99 -83.75 EX 20 5 104
1885 NA NA 12:00:00 MX 30.29 -82.88 30 atcf 0 0 O____________O hurdat_atl AL061885 30.20 -82.80 TD 30 -1 31.00 -83.50 EX 20 8 102
1885 NA NA 15:00:00 TS 30.19 -82.34 0 0 P_____________ AL061885 30.19 -82.34 TD 30 -1 EX 9 95
1885 NA NA 18:00:00 TS 30.20 -81.80 30 atcf 0 0 O_____________ hurdat_atl AL061885 30.20 -81.80 TD 30 -1 9 84
1885 NA NA 21:00:00 TS 30.28 -81.31 19 19 P_____________ AL061885 30.28 -81.31 TD 35 0 9 77
1885 NA NA 1885-10-01 00:00:00 TS 30.40 -80.80 40 atcf 66 66 O_____________ hurdat_atl AL061885 30.40 -80.80 TS 40 0 10 76
1885 NA NA 03:00:00 TS 30.53 -80.18 116 116 P_____________ AL061885 30.53 -80.18 TS 40 0 11 74
1885 NA NA 06:00:00 TS 30.70 -79.60 40 atcf 171 171 O_____________ hurdat_atl AL061885 30.70 -79.60 TS 40 0 9 66
1885 NA NA 09:00:00 TS 30.91 -79.18 195 192 P_____________ AL061885 30.91 -79.18 TS 45 0 8 54
1885 NA NA 12:00:00 TS 31.20 -78.80 50 atcf 192 187 O_____________ hurdat_atl AL061885 31.20 -78.80 TS 50 0 10 49
1885 NA NA 15:00:00 TS 31.57 -78.30 187 179 P_____________ AL061885 31.57 -78.30 TS 55 0 12 47
1885 NA NA 18:00:00 TS 32.00 -77.80 60 atcf 186 176 O_____________ hurdat_atl AL061885 32.00 -77.80 TS 60 0 12 42
1885 NA NA 21:00:00 TS 32.44 -77.38 176 144 P_____________ AL061885 32.44 -77.38 TS 60 0 11 37
1885 NA NA 1885-10-02 00:00:00 TS 32.90 -77.00 60 atcf 144 135 O_____________ hurdat_atl AL061885 32.90 -77.00 TS 60 0 11 34
1885 NA NA 03:00:00 TS 33.36 -76.64 140 101 P_____________ AL061885 33.36 -76.64 TS 60 0 11 33
1885 NA NA 06:00:00 TS 33.80 -76.30 60 atcf 101 76 O_____________ hurdat_atl AL061885 33.80 -76.30 TS 60 0 9 34
1885 NA NA 09:00:00 TS 34.14 -76.01 81 70 P_____________ AL061885 34.14 -76.01 TS 65 1 9 40
1885 NA NA 12:00:00 TS 34.50 -75.60 70 atcf 77 77 O_____________ hurdat_atl AL061885 34.50 -75.60 HU 70 1 12 47
1885 NA NA 15:00:00 TS 34.97 -74.93 98 98 P_____________ AL061885 34.97 -74.93 HU 70 1 16 51
1885 NA NA 18:00:00 TS 35.50 -74.10 70 atcf 130 O_____________ hurdat_atl AL061885 35.50 -74.10 HU 70 1 17 52